Time;durP1;ratioP1;P1;durP2;ratioP2;P2;SDS_P1;SDS_P2;PMS_P1;PMS_P2;Temp;Humidity;BMP_temperature;BMP_pressure;BME280_temperature;BME280_humidity;BME280_pressure;Samples;Min_cycle;Max_cycle;Signal;HPM_P1;HPM_P2
2021/12/16 00:01:47;;;;;;;21.60;13.65;;;2.50;99.90;;;;;;4989880;28;20037;-75
2021/12/16 00:09:17;;;;;;;23.90;13.75;;;2.20;99.90;;;;;;4986165;28;20030;-74
2021/12/16 00:33:14;;;;;;;23.98;14.57;;;2.20;99.90;;;;;;5032237;28;20032;-74
2021/12/16 00:35:43;;;;;;;24.75;13.75;;;2.00;99.90;;;;;;5031467;28;20120;-75
2021/12/16 00:38:09;;;;;;;26.52;14.55;;;2.20;99.90;;;;;;5030751;28;20491;-75
2021/12/16 00:40:40;;;;;;;25.27;14.10;;;2.10;99.90;;;;;;5030999;28;20033;-74
2021/12/16 00:43:17;;;;;;;23.27;13.95;;;2.10;99.90;;;;;;5030829;28;20021;-74
2021/12/16 00:45:56;;;;;;;24.83;14.70;;;2.00;99.90;;;;;;5030539;28;20077;-74
2021/12/16 00:48:25;;;;;;;23.60;14.93;;;2.00;99.90;;;;;;5012889;28;20026;-74
2021/12/16 00:56:14;;;;;;;23.90;13.20;;;2.10;99.90;;;;;;5030420;28;20087;-74
2021/12/16 00:58:49;;;;;;;24.25;13.45;;;2.00;99.90;;;;;;5030409;28;20029;-74
2021/12/16 01:06:59;;;;;;;21.42;13.23;;;1.90;99.90;;;;;;5030323;28;20088;-74
2021/12/16 01:37:36;;;;;;;31.42;16.83;;;1.70;99.90;;;;;;5027285;28;20045;-74
2021/12/16 01:50:55;;;;;;;31.05;16.88;;;1.70;99.90;;;;;;4989551;28;20053;-74
2021/12/16 01:53:48;;;;;;;31.70;16.33;;;1.60;99.90;;;;;;4987606;28;20030;-74
2021/12/16 01:57:01;;;;;;;38.15;19.42;;;1.70;99.90;;;;;;4987221;28;20061;-74
2021/12/16 01:59:01;;;;;;;33.40;17.42;;;1.60;99.90;;;;;;4980369;28;20066;-74
2021/12/16 02:01:32;;;;;;;33.28;18.30;;;1.50;99.90;;;;;;4971200;28;20057;-74
2021/12/16 02:04:07;;;;;;;35.25;17.63;;;1.40;99.90;;;;;;4987232;28;20197;-74
2021/12/16 02:09:14;;;;;;;30.63;18.05;;;1.50;99.90;;;;;;4988675;28;20286;-76
2021/12/16 02:11:52;;;;;;;34.10;17.58;;;1.50;99.90;;;;;;4988537;28;20057;-75
2021/12/16 02:38:48;;;;;;;32.35;16.88;;;1.40;99.90;;;;;;4987877;28;20061;-74
2021/12/16 02:41:15;;;;;;;30.88;16.00;;;1.40;99.90;;;;;;4970199;28;20504;-74
2021/12/16 02:49:09;;;;;;;28.45;15.70;;;1.50;99.90;;;;;;4986772;28;20610;-73
2021/12/16 02:51:35;;;;;;;29.13;16.80;;;1.30;99.90;;;;;;4986398;28;20030;-74
2021/12/16 02:54:04;;;;;;;27.75;15.32;;;1.40;99.90;;;;;;4987881;28;20119;-73
2021/12/16 02:56:31;;;;;;;31.85;17.05;;;1.30;99.90;;;;;;4986386;28;20034;-74
2021/12/16 02:58:57;;;;;;;29.33;15.93;;;1.20;99.90;;;;;;4979963;28;20569;-73
2021/12/16 03:01:38;;;;;;;25.35;15.25;;;1.30;99.90;;;;;;4947655;29;20039;-75
2021/12/16 03:04:08;;;;;;;28.98;16.05;;;1.00;99.90;;;;;;4947765;29;20035;-73
2021/12/16 03:06:34;;;;;;;26.38;15.48;;;1.20;99.90;;;;;;4948429;28;20031;-73
2021/12/16 03:09:03;;;;;;;28.95;15.65;;;1.20;99.90;;;;;;5029622;28;20075;-73
2021/12/16 03:11:43;;;;;;;27.42;15.20;;;1.10;99.90;;;;;;5028015;28;20056;-73
2021/12/16 03:19:59;;;;;;;23.67;13.65;;;1.10;99.90;;;;;;4997474;28;20095;-73
2021/12/16 03:22:54;;;;;;;25.65;13.88;;;1.20;99.90;;;;;;4990309;28;20500;-73
2021/12/16 03:38:20;;;;;;;23.10;13.27;;;1.10;99.90;;;;;;4985644;28;20046;-73
2021/12/16 03:40:46;;;;;;;22.83;12.45;;;1.00;99.90;;;;;;4985645;28;20038;-73
2021/12/16 03:43:18;;;;;;;20.80;12.68;;;1.10;99.90;;;;;;4985716;28;20030;-73
2021/12/16 03:49:01;;;;;;;19.88;12.30;;;1.10;99.90;;;;;;4970668;28;20035;-73
2021/12/16 03:51:27;;;;;;;20.65;12.18;;;1.10;99.90;;;;;;4985845;28;20524;-73
2021/12/16 03:53:57;;;;;;;19.17;12.50;;;1.20;99.90;;;;;;4975686;28;20039;-73
2021/12/16 03:56:23;;;;;;;20.13;12.27;;;1.10;99.90;;;;;;4966130;28;20054;-73
2021/12/16 03:58:49;;;;;;;19.33;11.65;;;1.10;99.90;;;;;;4966283;28;20035;-73
2021/12/16 04:01:23;;;;;;;20.55;12.75;;;1.10;99.90;;;;;;4966418;28;20043;-73
2021/12/16 04:03:50;;;;;;;18.38;11.65;;;1.10;99.90;;;;;;4966329;28;20062;-73
2021/12/16 04:06:18;;;;;;;20.42;12.32;;;1.10;99.90;;;;;;4967013;28;20106;-73
2021/12/16 04:08:44;;;;;;;21.25;12.50;;;1.00;99.90;;;;;;4967224;28;20497;-73
2021/12/16 04:11:21;;;;;;;19.35;12.32;;;1.10;99.90;;;;;;4965923;28;20038;-72
2021/12/16 04:13:56;;;;;;;18.73;11.68;;;1.10;99.90;;;;;;4989229;28;20033;-73
2021/12/16 04:16:33;;;;;;;20.35;13.35;;;1.00;99.90;;;;;;5027307;28;20056;-73
2021/12/16 04:19:01;;;;;;;20.63;12.30;;;1.10;99.90;;;;;;5027646;28;20112;-73
2021/12/16 04:21:28;;;;;;;19.98;11.73;;;1.10;99.90;;;;;;5027457;28;20023;-73
2021/12/16 04:23:57;;;;;;;18.92;11.50;;;1.10;99.90;;;;;;5028806;28;20022;-73
2021/12/16 04:26:26;;;;;;;18.98;11.80;;;1.10;99.90;;;;;;5009119;28;20116;-73
2021/12/16 04:28:52;;;;;;;19.40;11.48;;;1.10;99.90;;;;;;5006100;28;20022;-73
2021/12/16 04:31:18;;;;;;;20.88;12.25;;;1.10;99.90;;;;;;5016808;28;20108;-73
2021/12/16 04:33:44;;;;;;;19.13;11.50;;;1.10;99.90;;;;;;5027320;28;20098;-73
2021/12/16 04:36:12;;;;;;;18.75;11.70;;;1.10;99.90;;;;;;5028029;28;20108;-73
2021/12/16 04:38:39;;;;;;;20.05;11.93;;;1.10;99.90;;;;;;5027351;28;20030;-73
2021/12/16 04:41:09;;;;;;;20.98;12.20;;;0.80;99.90;;;;;;5027042;28;20025;-73
2021/12/16 04:43:40;;;;;;;20.40;12.23;;;0.90;99.90;;;;;;5026932;28;20076;-73
2021/12/16 04:46:15;;;;;;;18.17;11.63;;;0.90;99.90;;;;;;5027041;28;20041;-73
2021/12/16 04:48:43;;;;;;;20.85;12.63;;;0.90;99.90;;;;;;5027311;28;20081;-72
2021/12/16 04:51:10;;;;;;;21.50;12.38;;;0.90;99.90;;;;;;5028584;28;20036;-72
2021/12/16 04:53:37;;;;;;;19.52;11.85;;;0.90;99.90;;;;;;5027840;28;20034;-72
2021/12/16 04:56:05;;;;;;;21.88;12.18;;;0.80;99.90;;;;;;5028057;28;20053;-73
2021/12/16 04:58:31;;;;;;;18.95;11.75;;;0.80;99.90;;;;;;5030333;28;20034;-73
2021/12/16 05:00:57;;;;;;;22.55;12.48;;;0.90;99.90;;;;;;5030330;28;20027;-73
2021/12/16 05:03:25;;;;;;;19.20;11.88;;;0.80;99.90;;;;;;5030686;28;20117;-72
2021/12/16 05:05:51;;;;;;;19.20;12.10;;;0.90;99.90;;;;;;5011779;28;20026;-73
2021/12/16 05:08:18;;;;;;;18.98;11.27;;;0.70;99.90;;;;;;5030185;28;20037;-73
2021/12/16 05:10:46;;;;;;;17.98;11.48;;;0.80;99.90;;;;;;5030087;28;20022;-72
2021/12/16 05:13:12;;;;;;;19.90;11.57;;;0.80;99.90;;;;;;5009364;28;20056;-73
2021/12/16 05:15:41;;;;;;;18.05;11.27;;;0.80;99.90;;;;;;5030586;28;20025;-72
2021/12/16 05:18:11;;;;;;;22.02;12.18;;;0.80;99.90;;;;;;5031824;28;20132;-73
2021/12/16 05:20:42;;;;;;;20.05;11.73;;;0.90;99.90;;;;;;5030605;28;20525;-73
2021/12/16 05:28:21;;;;;;;17.00;10.98;;;0.80;99.90;;;;;;5029812;28;20018;-72
2021/12/16 05:30:47;;;;;;;17.77;10.63;;;0.80;99.90;;;;;;5030415;28;20510;-73
2021/12/16 05:33:13;;;;;;;16.65;10.90;;;0.80;99.90;;;;;;5030763;28;20020;-72
2021/12/16 05:35:39;;;;;;;17.33;10.55;;;0.90;99.90;;;;;;5030417;28;20029;-72
2021/12/16 05:38:05;;;;;;;19.05;10.73;;;0.90;99.90;;;;;;5029440;28;20034;-72
2021/12/16 05:40:32;;;;;;;17.85;11.45;;;0.90;99.90;;;;;;5029480;28;20033;-72
2021/12/16 05:43:03;;;;;;;20.67;11.63;;;0.90;99.90;;;;;;5030140;28;20116;-73
2021/12/16 05:45:29;;;;;;;18.08;11.35;;;0.90;99.90;;;;;;5029272;28;20053;-72
2021/12/16 05:47:57;;;;;;;17.50;9.85;;;0.90;99.90;;;;;;5013161;28;20021;-72
2021/12/16 05:50:24;;;;;;;16.17;10.70;;;0.90;99.90;;;;;;5029595;28;20094;-72
2021/12/16 05:52:49;;;;;;;19.45;11.15;;;0.70;99.90;;;;;;5029630;28;20034;-72
2021/12/16 05:55:16;;;;;;;17.77;10.90;;;0.80;99.90;;;;;;5029175;28;20060;-72
2021/12/16 05:57:45;;;;;;;21.05;11.73;;;0.80;99.90;;;;;;5029565;28;20486;-72
2021/12/16 06:00:21;;;;;;;21.10;11.13;;;0.90;99.90;;;;;;5030887;28;20041;-72
2021/12/16 06:02:48;;;;;;;18.52;10.85;;;0.90;99.90;;;;;;5030191;28;20113;-72
2021/12/16 06:05:14;;;;;;;15.30;10.15;;;0.80;99.90;;;;;;5029522;28;20029;-72
2021/12/16 06:07:40;;;;;;;16.40;11.07;;;0.80;99.90;;;;;;5028720;28;20017;-72
2021/12/16 06:10:30;;;;;;;17.02;10.18;;;0.80;99.90;;;;;;5029446;28;20017;-72
2021/12/16 06:12:54;;;;;;;18.30;11.30;;;0.70;99.90;;;;;;5028846;28;20112;-72
2021/12/16 06:15:40;;;;;;;16.23;10.25;;;0.70;99.90;;;;;;5029247;28;20256;-72
2021/12/16 06:28:52;;;;;;;14.60;9.70;;;0.70;99.90;;;;;;5028957;28;20029;-72
2021/12/16 06:31:18;;;;;;;16.52;10.27;;;0.60;99.90;;;;;;5028319;28;20022;-72
2021/12/16 06:33:43;;;;;;;16.85;10.23;;;0.80;99.90;;;;;;5028810;28;20501;-72
2021/12/16 06:36:10;;;;;;;15.27;10.30;;;0.70;99.90;;;;;;5030391;28;20025;-72
2021/12/16 06:38:35;;;;;;;15.48;9.98;;;0.70;99.90;;;;;;5028840;28;20037;-72
2021/12/16 06:41:01;;;;;;;13.95;9.32;;;0.60;99.90;;;;;;5028924;28;20399;-72
2021/12/16 06:43:27;;;;;;;17.45;10.05;;;0.70;99.90;;;;;;5028464;28;20101;-72
2021/12/16 06:45:55;;;;;;;18.00;10.07;;;0.60;99.90;;;;;;5028103;28;20034;-72
2021/12/16 06:48:26;;;;;;;14.80;9.80;;;0.50;99.90;;;;;;5027576;28;20021;-72
2021/12/16 06:50:57;;;;;;;15.52;9.50;;;0.50;99.90;;;;;;5030275;28;20017;-71
2021/12/16 06:53:44;;;;;;;16.83;9.85;;;0.40;99.90;;;;;;5028080;28;20030;-72
2021/12/16 06:56:17;;;;;;;13.57;9.55;;;0.40;99.90;;;;;;5007304;28;20124;-72
2021/12/16 06:59:02;;;;;;;16.75;10.05;;;0.50;99.90;;;;;;5021425;28;20034;-71
2021/12/16 07:01:59;;;;;;;15.80;9.77;;;0.50;99.90;;;;;;5010565;28;20586;-72
2021/12/16 07:04:18;;;;;;;16.95;9.88;;;0.60;99.90;;;;;;5026889;28;20029;-72
2021/12/16 07:06:44;;;;;;;14.77;10.00;;;0.60;99.90;;;;;;5010270;28;20075;-72
2021/12/16 07:09:15;;;;;;;14.00;9.02;;;0.60;99.90;;;;;;5029634;28;20025;-71
2021/12/16 07:11:43;;;;;;;15.73;9.65;;;0.60;99.90;;;;;;5028565;28;20052;-72
2021/12/16 07:14:16;;;;;;;15.23;9.45;;;0.50;99.90;;;;;;5027946;28;20029;-72
2021/12/16 07:16:44;;;;;;;18.98;10.85;;;0.50;99.90;;;;;;5028160;28;20060;-71
2021/12/16 07:19:10;;;;;;;16.63;10.40;;;0.50;99.90;;;;;;5027855;28;20273;-71
2021/12/16 07:21:37;;;;;;;16.65;10.10;;;0.30;99.90;;;;;;5028036;28;20025;-71
2021/12/16 07:24:06;;;;;;;18.25;10.63;;;0.40;99.90;;;;;;5029909;28;20033;-72
2021/12/16 07:26:32;;;;;;;19.50;11.05;;;0.50;99.90;;;;;;5027850;28;20059;-72
2021/12/16 07:28:58;;;;;;;17.45;11.15;;;0.50;99.90;;;;;;5028355;28;20441;-71
2021/12/16 07:31:24;;;;;;;20.45;10.70;;;0.60;99.90;;;;;;5027639;28;20022;-71
2021/12/16 07:33:49;;;;;;;21.20;11.65;;;0.60;99.90;;;;;;5028331;28;20129;-71
2021/12/16 07:36:18;;;;;;;18.65;10.68;;;0.70;99.90;;;;;;5027778;28;20112;-71
2021/12/16 07:38:45;;;;;;;19.48;12.18;;;0.70;99.90;;;;;;5029143;28;20133;-71
2021/12/16 07:41:12;;;;;;;21.05;11.77;;;0.70;99.90;;;;;;5027860;28;20021;-71
2021/12/16 07:43:55;;;;;;;20.52;12.45;;;0.60;99.90;;;;;;5027779;28;20033;-72
2021/12/16 07:46:21;;;;;;;25.60;13.15;;;0.70;99.90;;;;;;5027302;28;20037;-71
2021/12/16 07:48:46;;;;;;;25.58;12.73;;;0.80;99.90;;;;;;5027817;28;20143;-71
2021/12/16 07:51:12;;;;;;;22.25;13.45;;;0.80;99.90;;;;;;5028669;28;20391;-71
2021/12/16 07:53:39;;;;;;;22.67;12.90;;;1.00;99.90;;;;;;5028573;28;20021;-71
2021/12/16 07:56:06;;;;;;;21.02;12.07;;;1.20;99.90;;;;;;5027808;28;20036;-71
2021/12/16 07:58:32;;;;;;;19.40;11.88;;;1.00;99.90;;;;;;5027444;28;20094;-71
2021/12/16 08:00:58;;;;;;;23.60;11.85;;;1.00;99.90;;;;;;5027725;28;20588;-72
2021/12/16 08:03:26;;;;;;;24.45;14.05;;;1.20;99.90;;;;;;5027891;28;20030;-71
2021/12/16 08:05:58;;;;;;;23.20;13.40;;;1.40;99.90;;;;;;5011049;28;20029;-72
2021/12/16 08:08:24;;;;;;;24.42;14.10;;;1.50;99.90;;;;;;5027083;28;20091;-72
2021/12/16 08:10:52;;;;;;;28.83;15.18;;;1.30;99.90;;;;;;5027569;28;20068;-71
2021/12/16 08:13:17;;;;;;;30.83;16.55;;;1.20;99.90;;;;;;5009406;28;20112;-71
2021/12/16 08:15:44;;;;;;;28.02;17.00;;;1.20;99.90;;;;;;5027481;28;20109;-71
2021/12/16 08:18:13;;;;;;;29.08;15.63;;;1.30;99.90;;;;;;5029423;28;20036;-71
2021/12/16 08:20:39;;;;;;;30.80;16.17;;;1.20;99.90;;;;;;5027661;28;20033;-71
2021/12/16 08:23:05;;;;;;;26.50;15.27;;;1.20;99.90;;;;;;5027388;28;20037;-71
2021/12/16 08:25:31;;;;;;;25.85;14.75;;;1.60;99.90;;;;;;5027054;28;20020;-71
2021/12/16 08:27:58;;;;;;;29.08;15.10;;;1.50;99.90;;;;;;5027429;28;20033;-71
2021/12/16 08:30:27;;;;;;;27.75;15.25;;;1.50;99.90;;;;;;5027534;28;20017;-71
2021/12/16 08:32:54;;;;;;;27.13;14.00;;;1.80;99.90;;;;;;5032591;28;20028;-71
2021/12/16 08:35:20;;;;;;;22.33;12.45;;;1.60;99.90;;;;;;5030885;28;20031;-71
2021/12/16 08:37:46;;;;;;;19.48;12.60;;;1.60;99.90;;;;;;5030642;28;20049;-71
2021/12/16 08:40:17;;;;;;;18.40;11.65;;;1.80;99.90;;;;;;5031298;28;20431;-71
2021/12/16 08:42:44;;;;;;;18.65;12.25;;;2.20;99.90;;;;;;5015542;28;20033;-71
2021/12/16 08:45:13;;;;;;;18.65;11.98;;;2.40;99.90;;;;;;5032345;28;20112;-71
2021/12/16 08:47:39;;;;;;;18.70;11.07;;;2.30;99.90;;;;;;5031987;28;20127;-71
2021/12/16 08:50:07;;;;;;;18.55;11.13;;;2.10;99.90;;;;;;5030355;28;20406;-72
2021/12/16 08:52:33;;;;;;;24.00;14.65;;;2.30;99.90;;;;;;5030744;28;20029;-71
2021/12/16 08:55:00;;;;;;;45.35;24.90;;;2.60;99.90;;;;;;5030810;28;20481;-71
2021/12/16 08:57:27;;;;;;;43.97;23.33;;;2.50;99.90;;;;;;5031176;28;20018;-72
2021/12/16 08:59:53;;;;;;;42.38;20.95;;;3.30;99.90;;;;;;5032210;28;20025;-72
2021/12/16 09:02:20;;;;;;;41.75;20.42;;;4.90;99.90;;;;;;5030671;28;20454;-72
2021/12/16 09:04:46;;;;;;;37.75;19.70;;;5.20;99.90;;;;;;5030607;28;20041;-72
2021/12/16 09:07:12;;;;;;;33.15;16.98;;;7.10;99.90;;;;;;5030470;28;20026;-72
2021/12/16 09:09:40;;;;;;;29.38;17.23;;;9.20;99.90;;;;;;5030730;28;20385;-72
2021/12/16 09:12:49;;;;;;;25.70;14.95;;;9.00;99.80;;;;;;5032597;28;20025;-73
2021/12/16 09:15:07;;;;;;;26.10;15.63;;;7.60;99.90;;;;;;5031024;28;20528;-72
2021/12/16 09:17:33;;;;;;;29.08;15.18;;;5.20;99.90;;;;;;5011973;28;20040;-73
2021/12/16 09:19:59;;;;;;;22.83;13.35;;;4.40;99.90;;;;;;5025986;28;20435;-72
2021/12/16 09:22:27;;;;;;;21.88;13.52;;;4.00;99.90;;;;;;5010075;28;20447;-73
2021/12/16 09:24:53;;;;;;;19.85;12.65;;;3.90;99.90;;;;;;5029256;28;20037;-72
2021/12/16 09:27:20;;;;;;;21.88;12.57;;;4.00;99.90;;;;;;5009677;28;20029;-72
2021/12/16 09:29:47;;;;;;;24.40;12.70;;;4.00;99.90;;;;;;5030431;28;20029;-73
2021/12/16 09:32:14;;;;;;;17.73;12.05;;;3.70;99.90;;;;;;5028869;28;20036;-73
2021/12/16 09:34:42;;;;;;;20.35;11.73;;;3.40;99.90;;;;;;5029380;28;20284;-72
2021/12/16 09:37:08;;;;;;;18.70;11.65;;;3.40;99.90;;;;;;5008071;28;20217;-72
2021/12/16 09:39:34;;;;;;;18.70;11.02;;;3.50;99.90;;;;;;5028707;28;20396;-73
2021/12/16 09:42:01;;;;;;;18.73;9.82;;;3.60;99.90;;;;;;5030047;28;20056;-72
2021/12/16 09:44:29;;;;;;;17.98;10.95;;;3.80;99.90;;;;;;5028702;28;20022;-72
2021/12/16 09:46:58;;;;;;;19.60;10.48;;;3.90;99.90;;;;;;5007668;28;20087;-72
2021/12/16 09:49:24;;;;;;;15.00;9.40;;;4.10;99.90;;;;;;5019311;28;20075;-72
2021/12/16 09:51:52;;;;;;;14.50;9.27;;;4.30;99.90;;;;;;5028967;28;20507;-72
2021/12/16 09:54:25;;;;;;;15.23;9.13;;;4.50;99.90;;;;;;5029353;28;20028;-72
2021/12/16 09:56:52;;;;;;;12.32;8.48;;;4.50;99.90;;;;;;5029939;28;20507;-72
2021/12/16 09:59:19;;;;;;;14.98;10.18;;;4.60;99.90;;;;;;5028895;28;20025;-72
2021/12/16 10:01:47;;;;;;;16.60;9.60;;;4.70;99.90;;;;;;5028305;28;20078;-73
2021/12/16 10:04:19;;;;;;;13.85;8.40;;;4.70;99.90;;;;;;5028946;28;20064;-73
2021/12/16 10:06:47;;;;;;;13.57;8.45;;;4.70;99.90;;;;;;5028866;28;20021;-72
2021/12/16 10:09:13;;;;;;;14.50;8.98;;;4.80;99.90;;;;;;5029416;28;20017;-73
2021/12/16 10:11:43;;;;;;;12.68;7.47;;;4.80;99.90;;;;;;5029853;28;20079;-73
2021/12/16 10:19:27;;;;;;;13.32;8.20;;;5.00;99.90;;;;;;5029159;28;20040;-72
2021/12/16 10:21:55;;;;;;;13.40;8.65;;;4.90;99.90;;;;;;5028687;28;20033;-72
2021/12/16 10:24:32;;;;;;;14.40;8.68;;;5.00;99.90;;;;;;5028732;28;20121;-73
2021/12/16 10:27:17;;;;;;;13.68;8.65;;;5.20;99.90;;;;;;5029811;28;20057;-72
2021/12/16 10:29:53;;;;;;;17.90;10.82;;;5.20;99.90;;;;;;5029482;28;20056;-72
2021/12/16 10:32:37;;;;;;;15.63;10.05;;;5.40;99.90;;;;;;5028182;28;20089;-72
2021/12/16 10:35:09;;;;;;;14.82;9.43;;;5.50;99.90;;;;;;5028162;28;20065;-72
2021/12/16 10:37:41;;;;;;;16.25;9.32;;;5.50;99.90;;;;;;5027416;28;20055;-73
2021/12/16 10:40:30;;;;;;;14.38;8.90;;;5.60;99.90;;;;;;5028351;28;20025;-73
2021/12/16 10:43:00;;;;;;;18.08;9.70;;;5.60;99.90;;;;;;5027918;28;20052;-72
2021/12/16 10:45:49;;;;;;;15.32;8.80;;;5.60;99.90;;;;;;5028267;28;20049;-72
2021/12/16 10:48:15;;;;;;;15.85;10.13;;;5.70;99.90;;;;;;5028562;28;20032;-73
2021/12/16 10:50:53;;;;;;;15.23;9.50;;;5.80;99.90;;;;;;5029026;28;20395;-73
2021/12/16 10:53:43;;;;;;;13.05;8.60;;;5.80;99.90;;;;;;5006030;28;20243;-73
2021/12/16 10:56:10;;;;;;;12.63;8.70;;;5.80;99.90;;;;;;4982415;28;20052;-73
2021/12/16 10:58:51;;;;;;;13.63;9.13;;;5.90;99.90;;;;;;4985738;28;20096;-72
2021/12/16 11:01:51;;;;;;;12.73;7.90;;;6.10;99.90;;;;;;4985854;28;20042;-72
2021/12/16 11:04:37;;;;;;;12.45;8.05;;;6.10;99.90;;;;;;4936527;29;20291;-73
2021/12/16 11:07:21;;;;;;;11.95;7.97;;;6.50;99.90;;;;;;4945709;29;20556;-73
2021/12/16 11:09:52;;;;;;;11.50;7.82;;;6.60;99.90;;;;;;4947030;29;20031;-73
2021/12/16 11:12:26;;;;;;;12.07;7.90;;;6.50;99.90;;;;;;4931297;29;20023;-73
2021/12/16 11:14:56;;;;;;;15.25;7.93;;;6.60;99.90;;;;;;4943985;29;20110;-73
2021/12/16 11:17:26;;;;;;;9.68;6.82;;;7.00;99.90;;;;;;4946834;29;20118;-73
2021/12/16 11:20:30;;;;;;;12.30;7.85;;;6.90;99.90;;;;;;4946527;28;20042;-73
2021/12/16 11:23:06;;;;;;;12.27;8.43;;;7.30;99.90;;;;;;4927278;29;20052;-73
2021/12/16 11:25:54;;;;;;;13.40;8.30;;;7.40;99.90;;;;;;4927394;29;20044;-73
2021/12/16 11:28:38;;;;;;;13.63;7.95;;;7.30;99.90;;;;;;4923043;29;20024;-73
2021/12/16 11:31:11;;;;;;;13.70;8.20;;;7.10;99.90;;;;;;4927287;29;20041;-73
2021/12/16 11:33:40;;;;;;;11.68;7.07;;;7.60;99.90;;;;;;4940383;29;20055;-73
2021/12/16 11:36:13;;;;;;;15.07;8.75;;;7.90;99.90;;;;;;4948415;29;20035;-73
2021/12/16 11:38:48;;;;;;;11.18;7.70;;;8.40;99.90;;;;;;4947452;29;20043;-73
2021/12/16 11:41:22;;;;;;;12.02;7.10;;;8.00;99.90;;;;;;4985172;28;20125;-73
2021/12/16 11:43:50;;;;;;;13.05;8.07;;;8.10;99.90;;;;;;4985293;28;20181;-73
2021/12/16 11:46:23;;;;;;;13.85;8.02;;;8.30;99.90;;;;;;4985141;28;20158;-73
2021/12/16 11:48:52;;;;;;;11.20;6.63;;;7.90;99.90;;;;;;4985149;28;20034;-74
2021/12/16 11:51:26;;;;;;;11.93;6.93;;;7.90;99.90;;;;;;4985893;28;20508;-73
2021/12/16 11:53:58;;;;;;;9.73;6.53;;;8.10;99.90;;;;;;4984348;28;20033;-74
2021/12/16 11:56:41;;;;;;;10.35;6.03;;;8.20;99.90;;;;;;4985376;28;20031;-74
2021/12/16 11:59:07;;;;;;;9.45;6.13;;;8.10;99.90;;;;;;4999364;28;20030;-73
2021/12/16 12:01:37;;;;;;;9.13;5.82;;;8.30;99.90;;;;;;5009072;28;20112;-74
2021/12/16 12:04:06;;;;;;;9.52;5.80;;;8.40;99.90;;;;;;5026647;28;20397;-74
2021/12/16 12:06:33;;;;;;;8.32;5.63;;;8.60;99.90;;;;;;5012619;28;20037;-74
2021/12/16 12:09:01;;;;;;;8.25;5.20;;;8.90;99.90;;;;;;5032243;28;20010;-74
2021/12/16 12:11:31;;;;;;;8.70;5.35;;;8.90;99.90;;;;;;5030827;28;20082;-74
2021/12/16 12:14:08;;;;;;;8.37;4.83;;;8.70;99.90;;;;;;5030710;28;20067;-74
2021/12/16 12:16:37;;;;;;;8.02;5.32;;;9.20;99.90;;;;;;5030855;28;20345;-75
2021/12/16 12:19:24;;;;;;;8.25;4.82;;;9.30;99.90;;;;;;5030874;28;20033;-75
2021/12/16 12:22:00;;;;;;;5.82;4.38;;;9.00;99.90;;;;;;5013307;28;20523;-74
2021/12/16 12:24:33;;;;;;;7.32;4.50;;;9.20;99.90;;;;;;5031157;28;20029;-74
2021/12/16 12:27:12;;;;;;;7.85;4.85;;;9.40;99.90;;;;;;5031647;28;20013;-75
2021/12/16 12:29:48;;;;;;;8.85;5.18;;;9.20;99.90;;;;;;5030208;28;20025;-75
2021/12/16 12:32:18;;;;;;;7.88;5.35;;;9.00;99.90;;;;;;5030452;28;20052;-75
2021/12/16 12:34:48;;;;;;;10.75;5.55;;;8.90;99.90;;;;;;5030493;28;20120;-74
2021/12/16 12:37:19;;;;;;;8.27;5.65;;;8.90;99.90;;;;;;5030613;28;20022;-75
2021/12/16 12:39:54;;;;;;;9.32;5.45;;;9.40;99.90;;;;;;5030614;28;20034;-74
2021/12/16 12:42:20;;;;;;;7.47;5.00;;;9.10;99.90;;;;;;5012809;28;20246;-74
2021/12/16 12:44:46;;;;;;;9.38;5.55;;;9.30;99.90;;;;;;5031552;28;20021;-75
2021/12/16 12:47:17;;;;;;;7.93;4.82;;;9.60;99.90;;;;;;5029730;28;20080;-75
2021/12/16 12:49:46;;;;;;;6.45;4.10;;;9.70;99.90;;;;;;5030041;28;20029;-75
2021/12/16 12:52:17;;;;;;;7.75;4.72;;;9.40;99.90;;;;;;5012519;28;20022;-75
2021/12/16 12:55:08;;;;;;;7.78;4.63;;;9.30;99.90;;;;;;5030159;28;20040;-75
2021/12/16 12:57:36;;;;;;;8.55;4.57;;;9.50;99.90;;;;;;5044950;28;20049;-75
2021/12/16 13:00:05;;;;;;;6.60;4.40;;;9.20;99.90;;;;;;5013689;28;20499;-75
2021/12/16 13:02:35;;;;;;;6.97;4.25;;;9.30;99.90;;;;;;5011980;28;20034;-75
2021/12/16 13:05:11;;;;;;;6.40;4.07;;;9.30;99.90;;;;;;5029624;28;20040;-75
2021/12/16 13:07:39;;;;;;;7.97;4.50;;;9.30;99.90;;;;;;5029769;28;20116;-75
2021/12/16 13:10:16;;;;;;;6.65;3.90;;;9.10;99.90;;;;;;5012200;28;20018;-75
2021/12/16 13:13:02;;;;;;;7.07;4.28;;;9.50;99.90;;;;;;5014448;28;20025;-75
2021/12/16 13:26:50;;;;;;;7.28;4.63;;;9.70;99.90;;;;;;5028711;28;20152;-75
2021/12/16 13:29:39;;;;;;;5.75;3.80;;;9.50;99.90;;;;;;5007542;28;20029;-75
2021/12/16 13:34:47;;;;;;;8.68;4.57;;;9.80;99.90;;;;;;5029097;28;20188;-75
2021/12/16 13:37:30;;;;;;;8.57;4.30;;;9.60;99.90;;;;;;5028808;28;20517;-75
2021/12/16 13:40:07;;;;;;;7.80;4.43;;;9.60;99.90;;;;;;5028526;28;20415;-75
2021/12/16 13:42:40;;;;;;;6.65;4.40;;;9.50;99.90;;;;;;5010944;28;20136;-75
2021/12/16 13:45:26;;;;;;;8.10;4.70;;;9.70;99.90;;;;;;5008767;28;20084;-75
2021/12/16 14:05:27;;;;;;;8.20;4.90;;;9.90;99.90;;;;;;5028469;28;20136;-75
2021/12/16 14:07:56;;;;;;;7.40;4.50;;;10.10;99.90;;;;;;4967308;28;20047;-76
2021/12/16 14:10:48;;;;;;;8.65;4.55;;;9.90;99.90;;;;;;4968315;28;20038;-75
2021/12/16 14:31:57;;;;;;;9.32;5.55;;;9.80;99.90;;;;;;4914596;29;20042;-75
2021/12/16 14:37:15;;;;;;;8.48;4.97;;;9.80;99.90;;;;;;4930611;29;20031;-75
2021/12/16 14:42:32;;;;;;;8.20;4.75;;;10.20;99.90;;;;;;4930090;29;20752;-75
2021/12/16 14:45:13;;;;;;;9.27;5.57;;;10.00;99.90;;;;;;4925630;29;20043;-75
2021/12/16 14:50:37;;;;;;;8.40;5.55;;;9.90;99.90;;;;;;4947221;29;20089;-75
2021/12/16 14:53:28;;;;;;;9.00;5.43;;;9.80;99.90;;;;;;4927315;29;20057;-75
2021/12/16 14:55:59;;;;;;;8.20;5.05;;;10.00;99.90;;;;;;4921274;29;20031;-75
2021/12/16 14:58:26;;;;;;;7.50;4.75;;;10.10;99.90;;;;;;4927903;28;20104;-75
2021/12/16 15:01:05;;;;;;;9.77;5.57;;;10.10;99.90;;;;;;4967059;28;20026;-75
2021/12/16 15:03:36;;;;;;;8.90;4.65;;;10.10;99.90;;;;;;4948853;28;20042;-75
2021/12/16 15:06:10;;;;;;;8.68;5.60;;;9.90;99.90;;;;;;5018548;28;20029;-75
2021/12/16 15:09:06;;;;;;;7.22;4.75;;;9.70;99.90;;;;;;5027531;28;20030;-75
2021/12/16 15:11:44;;;;;;;8.00;4.22;;;9.60;99.90;;;;;;5027573;28;20022;-74
2021/12/16 15:17:04;;;;;;;7.50;4.15;;;9.70;99.90;;;;;;5026691;28;20108;-75
2021/12/16 15:39:48;;;;;;;11.52;5.47;;;9.60;99.90;;;;;;5026477;28;20231;-75
2021/12/16 15:45:01;;;;;;;7.53;4.57;;;9.40;99.90;;;;;;5028650;28;20094;-75
2021/12/16 15:47:28;;;;;;;9.13;5.30;;;9.40;99.90;;;;;;5009349;28;20053;-75
2021/12/16 15:49:54;;;;;;;12.52;6.20;;;9.20;99.90;;;;;;5026923;28;20017;-75
2021/12/16 15:52:21;;;;;;;9.02;5.47;;;9.20;99.90;;;;;;5027118;28;20022;-75
2021/12/16 15:54:50;;;;;;;8.93;5.68;;;9.20;99.90;;;;;;5027366;28;20028;-75
2021/12/16 15:57:18;;;;;;;9.98;5.63;;;9.10;99.90;;;;;;5009915;28;20033;-75
2021/12/16 15:59:48;;;;;;;9.02;6.00;;;9.00;99.90;;;;;;5027570;28;20021;-75
2021/12/16 16:02:16;;;;;;;9.00;5.68;;;8.90;99.90;;;;;;5026971;28;20036;-75
2021/12/16 16:04:42;;;;;;;7.13;5.32;;;8.90;99.90;;;;;;5026966;28;20037;-75
2021/12/16 16:07:13;;;;;;;11.65;6.72;;;8.90;99.90;;;;;;5027235;28;20502;-75
2021/12/16 16:09:55;;;;;;;9.45;5.88;;;8.80;99.90;;;;;;5027545;28;20088;-75
2021/12/16 16:12:29;;;;;;;12.60;6.45;;;8.70;99.90;;;;;;5027146;28;20025;-75
2021/12/16 16:14:59;;;;;;;9.35;5.85;;;8.70;99.90;;;;;;5029180;28;20037;-75
2021/12/16 16:17:26;;;;;;;9.60;5.72;;;8.50;99.90;;;;;;5027488;28;20052;-75
2021/12/16 16:19:54;;;;;;;11.57;6.43;;;8.50;99.90;;;;;;5027198;28;20121;-75
2021/12/16 16:22:20;;;;;;;11.30;6.45;;;8.40;99.90;;;;;;5027617;28;20032;-75
2021/12/16 16:24:51;;;;;;;8.75;6.35;;;8.40;99.90;;;;;;5027568;28;20030;-74
2021/12/16 16:27:22;;;;;;;10.48;6.75;;;8.20;99.90;;;;;;5028241;28;20471;-75
2021/12/16 16:29:51;;;;;;;10.73;5.70;;;8.10;99.90;;;;;;5028083;28;20018;-75
2021/12/16 16:32:18;;;;;;;10.95;7.05;;;8.00;99.90;;;;;;5027016;28;20026;-75
2021/12/16 16:34:47;;;;;;;11.18;6.53;;;8.00;99.90;;;;;;5027289;28;20033;-75
2021/12/16 16:37:28;;;;;;;10.15;6.63;;;7.90;99.90;;;;;;5027199;28;20021;-75
2021/12/16 16:40:00;;;;;;;9.27;5.93;;;7.80;99.90;;;;;;5009764;28;20026;-75
2021/12/16 16:42:40;;;;;;;10.98;6.80;;;7.60;99.90;;;;;;5007944;28;20026;-75
2021/12/16 16:45:10;;;;;;;11.80;6.88;;;7.50;99.90;;;;;;5028546;28;20029;-75
2021/12/16 16:47:47;;;;;;;10.85;6.18;;;7.30;99.90;;;;;;5026741;28;20112;-75
2021/12/16 16:50:14;;;;;;;12.68;6.70;;;7.20;99.90;;;;;;5006279;28;20022;-75
2021/12/16 16:52:43;;;;;;;8.75;5.85;;;7.10;99.90;;;;;;5021064;28;20028;-75
2021/12/16 16:55:16;;;;;;;9.27;6.43;;;7.10;99.90;;;;;;5030925;28;20092;-75
2021/12/16 16:57:47;;;;;;;9.65;6.13;;;7.00;99.90;;;;;;5013134;28;20127;-75
2021/12/16 17:00:31;;;;;;;12.52;6.40;;;6.70;99.90;;;;;;5011437;28;20030;-75